Time;durP1;ratioP1;P1;durP2;ratioP2;P2;SDS_P1;SDS_P2;PMS_P1;PMS_P2;Temp;Humidity;BMP_temperature;BMP_pressure;BME280_temperature;BME280_humidity;BME280_pressure;Samples;Min_cycle;Max_cycle;Signal;HPM_P1;HPM_P2
2022/07/17 00:00:14;;;;;;;;;6.50;6.50;;;;;27.11;31.02;101861.66;2105926;28;47471;-59
2022/07/17 00:01:14;;;;;;;;;9.00;9.00;;;;;27.12;30.43;101863.38;2109730;27;47837;-60
2022/07/17 00:02:15;;;;;;;;;5.50;5.50;;;;;27.12;31.09;101867.97;2111626;27;48351;-60
2022/07/17 00:03:17;;;;;;;;;6.50;6.50;;;;;27.10;30.29;101868.06;2105517;28;47529;-62
2022/07/17 00:04:17;;;;;;;;;8.40;8.40;;;;;27.10;30.98;101868.06;2095688;28;48040;-60
2022/07/17 00:05:18;;;;;;;;;8.75;7.00;;;;;27.10;30.87;101862.63;2095999;28;47900;-60
2022/07/17 00:06:19;;;;;;;;;7.00;7.00;;;;;27.08;31.01;101858.28;2096478;28;47487;-61
2022/07/17 00:07:20;;;;;;;;;7.75;7.75;;;;;27.07;31.13;101862.88;2096600;28;47642;-61
2022/07/17 00:08:20;;;;;;;;;11.00;10.75;;;;;27.08;30.68;101861.00;2113435;27;47456;-58
2022/07/17 00:09:21;;;;;;;;;11.50;9.00;;;;;27.06;31.34;101860.22;2113157;27;48129;-60
2022/07/17 00:10:21;;;;;;;;;7.25;7.25;;;;;27.05;30.78;101859.34;2105431;28;47012;-58
2022/07/17 00:11:22;;;;;;;;;6.75;6.75;;;;;27.05;31.26;101861.19;2105246;28;47891;-59
2022/07/17 00:12:22;;;;;;;;;5.50;5.50;;;;;27.04;31.35;101854.88;2105583;28;47649;-60
2022/07/17 00:13:23;;;;;;;;;4.00;4.00;;;;;27.03;30.88;101858.59;2105321;28;47326;-58
2022/07/17 00:14:24;;;;;;;;;5.00;5.00;;;;;27.02;30.96;101856.84;2095585;28;45675;-59
2022/07/17 00:15:24;;;;;;;;;5.50;5.00;;;;;27.03;31.38;101858.59;2095997;28;47328;-59
2022/07/17 00:16:25;;;;;;;;;8.50;8.50;;;;;27.02;31.16;101859.56;2105263;28;47265;-61
2022/07/17 00:17:25;;;;;;;;;7.00;7.00;;;;;27.03;30.61;101861.31;2105350;28;47847;-59
2022/07/17 00:18:26;;;;;;;;;6.25;6.25;;;;;27.03;31.14;101860.44;2105270;28;47850;-60
2022/07/17 00:19:26;;;;;;;;;7.25;7.25;;;;;27.02;31.39;101858.72;2079110;28;47272;-59
2022/07/17 00:20:27;;;;;;;;;7.00;7.00;;;;;27.02;31.33;101850.53;2079326;28;46167;-60
2022/07/17 00:21:28;;;;;;;;;3.00;3.00;;;;;27.01;30.81;101857.84;2105217;28;47105;-59
2022/07/17 00:22:28;;;;;;;;;5.50;5.50;;;;;27.01;30.81;101854.22;2105365;28;47117;-60
2022/07/17 00:23:29;;;;;;;;;6.00;6.00;;;;;27.00;31.06;101845.16;2105300;28;47693;-61
2022/07/17 00:24:29;;;;;;;;;7.50;7.50;;;;;26.99;31.24;101846.16;2087241;28;47232;-61
2022/07/17 00:25:32;;;;;;;;;8.00;6.00;;;;;26.98;30.65;101847.16;2081652;28;47642;-60
2022/07/17 00:26:33;;;;;;;;;6.80;6.80;;;;;26.97;31.52;101850.84;2105377;28;45637;-59
2022/07/17 00:27:34;;;;;;;;;7.00;7.00;;;;;26.96;30.75;101843.66;2105495;28;47642;-60
2022/07/17 00:28:34;;;;;;;;;7.00;7.00;;;;;26.95;31.48;101840.06;2105191;28;47913;-60
2022/07/17 00:29:35;;;;;;;;;5.75;5.75;;;;;26.94;31.00;101851.09;2105585;28;47517;-60
2022/07/17 00:30:35;;;;;;;;;7.00;5.25;;;;;26.93;30.89;101849.31;2105301;28;47560;-61
2022/07/17 00:31:36;;;;;;;;;4.00;4.00;;;;;26.92;30.83;101845.72;2096241;28;47814;-60
2022/07/17 00:32:36;;;;;;;;;5.25;4.50;;;;;26.91;31.03;101846.69;2096622;28;47617;-61
2022/07/17 00:33:36;;;;;;;;;7.25;6.75;;;;;26.90;30.81;101850.41;2105367;28;47284;-61
2022/07/17 00:34:37;;;;;;;;;6.00;6.00;;;;;26.90;31.02;101857.72;2105391;28;47257;-60
2022/07/17 00:35:37;;;;;;;;;6.50;5.00;;;;;26.88;31.39;101859.69;2105844;28;46098;-58
2022/07/17 00:36:38;;;;;;;;;7.00;6.00;;;;;26.87;30.85;101850.63;2092901;28;47913;-59
2022/07/17 00:37:44;;;;;;;;;7.00;6.00;;;;;26.88;31.12;101856.97;2085276;28;47953;-59
2022/07/17 00:38:44;;;;;;;;;5.20;5.20;;;;;26.87;31.62;101861.53;2093531;28;47393;-59
2022/07/17 00:39:44;;;;;;;;;7.00;7.00;;;;;26.86;31.60;101848.03;2105240;28;47369;-62
2022/07/17 00:40:45;;;;;;;;;5.00;5.00;;;;;26.86;31.07;101859.78;2096919;28;47090;-60
2022/07/17 00:41:46;;;;;;;;;6.50;5.00;;;;;26.86;31.17;101850.75;2103538;28;46990;-60
2022/07/17 00:42:47;;;;;;;;;9.00;7.75;;;;;26.86;31.14;101853.47;2087175;28;47478;-57
2022/07/17 00:43:47;;;;;;;;;7.00;7.00;;;;;26.85;31.02;101849.00;2087230;28;47596;-61
2022/07/17 00:44:48;;;;;;;;;6.00;6.00;;;;;26.84;30.96;101852.72;2104761;28;47894;-60
2022/07/17 00:45:59;;;;;;;;;4.00;4.00;;;;;26.84;31.19;101853.59;2104780;28;47657;-60
2022/07/17 00:46:59;;;;;;;;;5.00;5.00;;;;;26.82;31.76;101852.84;2103050;28;47942;-60
2022/07/17 00:48:03;;;;;;;;;5.00;3.25;;;;;26.80;31.71;101843.88;2105207;28;48211;-61
2022/07/17 00:49:04;;;;;;;;;5.60;5.20;;;;;26.80;31.19;101853.91;2078961;28;47381;-61
2022/07/17 00:50:05;;;;;;;;;4.60;4.60;;;;;26.79;31.13;101852.16;2078973;28;47847;-61
2022/07/17 00:51:07;;;;;;;;;4.00;4.00;;;;;26.77;31.71;101845.97;2105023;28;47719;-61
2022/07/17 00:52:12;;;;;;;;;6.20;6.20;;;;;26.75;31.10;101846.06;2105135;28;47822;-59
2022/07/17 00:53:12;;;;;;;;;6.40;6.40;;;;;26.74;31.76;101852.50;2092079;28;47619;-61
2022/07/17 00:54:15;;;;;;;;;4.00;4.00;;;;;26.73;31.26;101847.16;2094644;28;47807;-60
2022/07/17 00:55:16;;;;;;;;;3.00;3.00;;;;;26.71;31.47;101850.00;2104748;28;47418;-61
2022/07/17 00:56:17;;;;;;;;;4.00;3.40;;;;;26.71;31.67;101851.88;2103102;27;47847;-60
2022/07/17 00:57:19;;;;;;;;;4.60;4.60;;;;;26.68;31.26;101856.56;2098840;27;47971;-58
2022/07/17 00:58:24;;;;;;;;;4.00;3.20;;;;;26.67;31.28;101852.06;2105105;28;47893;-61
2022/07/17 00:59:26;;;;;;;;;4.60;4.60;;;;;26.67;31.20;101849.34;2103831;28;47768;-59
2022/07/17 01:00:27;;;;;;;;;4.00;4.00;;;;;26.65;31.21;101862.19;2104911;27;47538;-59
2022/07/17 01:01:27;;;;;;;;;4.25;4.25;;;;;26.63;31.83;101858.72;2105995;27;47574;-57
2022/07/17 01:02:27;;;;;;;;;3.25;3.25;;;;;26.62;31.54;101856.97;2104822;28;47263;-58
2022/07/17 01:03:28;;;;;;;;;4.00;4.00;;;;;26.61;31.72;101857.09;2105024;28;46398;-61
2022/07/17 01:04:28;;;;;;;;;3.75;3.75;;;;;26.60;32.00;101856.22;2100782;28;47757;-60
2022/07/17 01:05:29;;;;;;;;;3.75;3.75;;;;;26.59;31.62;101857.19;2105027;28;47715;-61
2022/07/17 01:06:29;;;;;;;;;4.00;4.00;;;;;26.59;31.64;101857.19;2087987;28;47437;-58
2022/07/17 01:07:30;;;;;;;;;3.25;3.25;;;;;26.58;31.40;101857.31;2091505;28;48141;-61
2022/07/17 01:08:31;;;;;;;;;4.00;3.75;;;;;26.57;31.85;101861.03;2104968;28;47431;-60
2022/07/17 01:09:33;;;;;;;;;3.00;3.00;;;;;26.56;31.43;101862.88;2104982;28;47474;-59
2022/07/17 01:10:34;;;;;;;;;2.00;2.00;;;;;26.55;31.55;101862.94;2104825;28;47750;-60
2022/07/17 01:11:34;;;;;;;;;4.00;3.00;;;;;26.55;31.73;101861.13;2104890;28;48180;-59
2022/07/17 01:12:35;;;;;;;;;3.75;3.75;;;;;26.53;31.75;101854.03;2104264;28;47015;-61
2022/07/17 01:13:35;;;;;;;;;1.75;1.75;;;;;26.51;31.56;101858.72;2104610;28;47514;-60
2022/07/17 01:14:36;;;;;;;;;4.00;4.00;;;;;26.48;31.34;101853.50;2104959;28;47676;-58
2022/07/17 01:15:39;;;;;;;;;3.00;2.50;;;;;26.47;32.01;101860.78;2104985;28;47568;-58
2022/07/17 01:16:40;;;;;;;;;4.20;4.20;;;;;26.45;32.12;101860.03;2104713;27;47899;-60
2022/07/17 01:17:41;;;;;;;;;3.00;3.00;;;;;26.45;32.06;101862.75;2095868;28;47638;-59
2022/07/17 01:18:42;;;;;;;;;5.00;5.00;;;;;26.44;31.65;101852.84;2087440;28;47253;-60
2022/07/17 01:19:42;;;;;;;;;4.50;4.50;;;;;26.45;31.88;101859.16;2096058;28;47977;-61
2022/07/17 01:20:46;;;;;;;;;4.00;4.00;;;;;26.44;32.17;101861.00;2095810;28;47152;-61
2022/07/17 01:21:49;;;;;;;;;3.60;3.60;;;;;26.45;32.26;101864.59;2096343;28;48096;-59
2022/07/17 01:22:51;;;;;;;;;5.00;5.00;;;;;26.45;32.29;101859.16;2104993;27;47917;-60
2022/07/17 01:23:51;;;;;;;;;4.20;4.20;;;;;26.45;31.53;101856.44;2104954;28;47569;-58
2022/07/17 01:24:52;;;;;;;;;3.75;3.75;;;;;26.44;32.05;101857.41;2104459;27;47998;-60
2022/07/17 01:25:52;;;;;;;;;3.50;2.25;;;;;26.43;32.11;101856.56;2104948;28;46716;-58
2022/07/17 01:26:53;;;;;;;;;3.00;3.00;;;;;26.42;32.18;101854.78;2104486;28;47982;-57
2022/07/17 01:27:53;;;;;;;;;4.00;4.00;;;;;26.42;31.80;101851.19;2104751;28;45988;-59
2022/07/17 01:28:53;;;;;;;;;3.25;3.00;;;;;26.40;31.94;101848.56;2086891;28;45994;-59
2022/07/17 01:29:56;;;;;;;;;4.75;4.75;;;;;26.40;32.30;101849.44;2087090;28;47630;-60
2022/07/17 01:30:57;;;;;;;;;3.20;3.00;;;;;26.39;32.33;101844.09;2104885;28;47497;-61
2022/07/17 01:31:57;;;;;;;;;6.00;4.00;;;;;26.40;32.17;101848.56;2078337;28;47348;-59
2022/07/17 01:32:58;;;;;;;;;3.75;3.75;;;;;26.38;31.81;101851.41;2078711;28;47808;-60
2022/07/17 01:34:01;;;;;;;;;3.50;3.50;;;;;26.37;31.59;101857.84;2104780;28;47379;-57
2022/07/17 01:35:03;;;;;;;;;3.00;3.00;;;;;26.37;31.87;101859.69;2104869;28;47287;-60
2022/07/17 01:36:03;;;;;;;;;3.00;3.00;;;;;26.35;31.91;101857.03;2104685;28;48240;-60
2022/07/17 01:37:04;;;;;;;;;3.50;3.50;;;;;26.34;32.44;101854.44;2101196;28;46145;-60
2022/07/17 01:38:04;;;;;;;;;0.00;0.00;;;;;26.33;32.26;101861.72;2104752;28;47289;-60
2022/07/17 01:39:05;;;;;;;;;2.25;2.25;;;;;26.32;32.44;101865.44;2104751;28;47571;-60
2022/07/17 01:40:07;;;;;;;;;4.00;4.00;;;;;26.31;31.58;101860.09;2087612;28;47696;-57
2022/07/17 01:41:07;;;;;;;;;2.40;2.40;;;;;26.30;31.94;101852.91;2088076;28;48115;-60
2022/07/17 01:42:08;;;;;;;;;3.00;3.00;;;;;26.30;32.42;101858.34;2104651;28;47413;-60
2022/07/17 01:43:09;;;;;;;;;2.40;2.40;;;;;26.29;31.78;101853.84;2104689;28;47476;-60
2022/07/17 01:44:09;;;;;;;;;3.00;3.00;;;;;26.28;31.84;101853.00;2105151;28;45551;-60
2022/07/17 01:45:10;;;;;;;;;0.25;0.25;;;;;26.28;32.55;101850.28;2104698;28;47777;-60
2022/07/17 01:46:11;;;;;;;;;3.60;3.60;;;;;26.27;31.71;101844.94;2104747;28;47955;-60
2022/07/17 01:47:13;;;;;;;;;4.00;4.00;;;;;26.26;31.87;101846.78;2089521;28;47550;-60
2022/07/17 01:48:26;;;;;;;;;2.80;2.80;;;;;26.27;32.54;101850.38;2093963;28;46911;-61
2022/07/17 01:49:26;;;;;;;;;2.00;2.00;;;;;26.26;32.37;101851.34;2104770;28;47597;-61
2022/07/17 01:50:27;;;;;;;;;2.25;2.25;;;;;26.23;31.67;101847.00;2104622;28;46018;-59
2022/07/17 01:51:28;;;;;;;;;2.75;2.75;;;;;26.24;32.18;101853.31;2104629;28;46471;-60
2022/07/17 01:52:28;;;;;;;;;4.00;4.00;;;;;26.23;32.41;101843.41;2104500;28;47570;-61
2022/07/17 01:53:29;;;;;;;;;3.25;3.25;;;;;26.22;31.87;101845.28;2104718;28;47165;-61
2022/07/17 01:54:29;;;;;;;;;3.00;3.00;;;;;26.21;32.29;101840.81;2100843;28;47591;-60
2022/07/17 01:55:30;;;;;;;;;3.25;3.00;;;;;26.20;31.81;101844.50;2104083;28;47329;-61
2022/07/17 01:56:30;;;;;;;;;4.00;4.00;;;;;26.20;31.94;101844.50;2104830;28;47599;-61
2022/07/17 01:57:31;;;;;;;;;4.00;4.00;;;;;26.19;32.36;101841.91;2095435;28;47530;-61
2022/07/17 01:58:31;;;;;;;;;2.50;2.50;;;;;26.18;32.26;101834.72;2095671;28;46962;-60
2022/07/17 01:59:31;;;;;;;;;3.75;3.75;;;;;26.17;32.50;101841.09;2095639;28;47423;-61
2022/07/17 02:00:32;;;;;;;;;2.50;2.50;;;;;26.16;32.14;101836.66;2104507;28;48006;-61
2022/07/17 02:01:32;;;;;;;;;3.00;3.00;;;;;26.15;32.25;101838.50;2107781;27;47450;-60
2022/07/17 02:02:33;;;;;;;;;4.00;3.00;;;;;26.13;31.98;101837.75;2104462;27;46228;-60
2022/07/17 02:03:33;;;;;;;;;3.25;2.75;;;;;26.12;32.64;101838.72;2103451;27;47401;-59
2022/07/17 02:04:38;;;;;;;;;2.00;2.00;;;;;26.11;32.65;101835.13;2104472;28;47407;-60
2022/07/17 02:05:38;;;;;;;;;2.00;2.00;;;;;26.10;32.83;101830.66;2104674;28;47255;-58
2022/07/17 02:06:39;;;;;;;;;5.25;3.00;;;;;26.10;32.09;101840.69;2104563;28;47426;-60
2022/07/17 02:07:39;;;;;;;;;2.50;2.50;;;;;26.09;32.61;101836.22;2094535;28;47753;-59
2022/07/17 02:08:40;;;;;;;;;1.25;1.25;;;;;26.08;32.17;101837.19;2095126;28;47292;-60
2022/07/17 02:09:40;;;;;;;;;2.50;1.25;;;;;26.08;32.26;101838.06;2104603;28;47590;-60
2022/07/17 02:10:41;;;;;;;;;3.00;3.00;;;;;26.07;32.59;101840.91;2104731;28;47992;-60
2022/07/17 02:11:41;;;;;;;;;4.25;3.25;;;;;26.07;32.94;101838.19;2104872;28;47422;-59
2022/07/17 02:12:43;;;;;;;;;3.00;3.00;;;;;26.05;32.54;101835.56;2104368;28;48075;-60
2022/07/17 02:13:43;;;;;;;;;3.20;3.20;;;;;26.05;32.39;101841.00;2104875;28;48459;-60
2022/07/17 02:14:44;;;;;;;;;3.75;3.75;;;;;26.05;32.73;101835.56;2104663;28;47527;-60
2022/07/17 02:15:44;;;;;;;;;4.00;4.00;;;;;26.05;32.81;101834.69;2104600;28;47949;-60
2022/07/17 02:16:45;;;;;;;;;4.00;3.75;;;;;26.06;32.88;101841.88;2104749;28;47250;-59
2022/07/17 02:17:45;;;;;;;;;4.00;4.00;;;;;26.05;32.69;101837.41;2104330;28;47805;-60
2022/07/17 02:18:46;;;;;;;;;3.00;3.00;;;;;26.03;32.77;101832.06;2104582;28;47893;-59
2022/07/17 02:19:46;;;;;;;;;3.25;3.25;;;;;26.02;32.87;101824.00;2104643;28;46574;-59
2022/07/17 02:20:49;;;;;;;;;0.00;0.00;;;;;26.02;32.90;101835.75;2104574;28;47973;-60
2022/07/17 02:21:49;;;;;;;;;4.20;4.20;;;;;26.00;33.03;101828.69;2104654;28;48128;-60
2022/07/17 02:22:50;;;;;;;;;1.50;1.50;;;;;26.00;32.41;101828.69;2104190;28;47252;-60
2022/07/17 02:23:51;;;;;;;;;4.00;3.75;;;;;25.99;32.45;101832.38;2095539;28;46266;-60
2022/07/17 02:24:51;;;;;;;;;2.50;1.50;;;;;25.99;32.47;101830.53;2087207;28;48190;-60
2022/07/17 02:25:51;;;;;;;;;4.00;3.00;;;;;25.99;32.33;101841.41;2095291;28;47480;-60
2022/07/17 02:26:52;;;;;;;;;3.00;3.00;;;;;25.98;32.46;101836.09;2104644;28;47399;-60
2022/07/17 02:27:52;;;;;;;;;2.75;2.75;;;;;25.98;32.25;101831.50;2086417;28;47682;-60
2022/07/17 02:28:53;;;;;;;;;5.25;4.00;;;;;25.97;33.03;101832.50;2086696;28;48049;-60
2022/07/17 02:29:54;;;;;;;;;5.00;3.40;;;;;25.96;33.09;101838.91;2095526;28;47512;-60
2022/07/17 02:30:54;;;;;;;;;2.00;2.00;;;;;25.97;32.84;101834.34;2095545;28;47753;-60
2022/07/17 02:31:55;;;;;;;;;4.00;3.00;;;;;25.96;33.04;101832.59;2104460;28;47489;-60
2022/07/17 02:32:55;;;;;;;;;3.25;3.25;;;;;25.94;32.46;101832.72;2104471;28;47424;-60
2022/07/17 02:33:56;;;;;;;;;3.25;3.25;;;;;25.95;32.78;101830.84;2104779;28;47674;-60
2022/07/17 02:34:57;;;;;;;;;2.50;2.50;;;;;25.94;32.45;101842.72;2104529;28;47585;-60
2022/07/17 02:35:57;;;;;;;;;3.00;3.00;;;;;25.93;33.13;101836.41;2104582;28;47924;-59
2022/07/17 02:36:57;;;;;;;;;3.25;3.25;;;;;25.92;32.65;101836.47;2104431;28;47471;-60
2022/07/17 02:37:58;;;;;;;;;3.00;3.00;;;;;25.93;32.67;101830.97;2104121;28;46106;-60
2022/07/17 02:38:58;;;;;;;;;3.25;3.25;;;;;25.92;33.02;101836.47;2104587;28;48002;-59
2022/07/17 02:39:59;;;;;;;;;2.50;2.50;;;;;25.92;33.01;101831.03;2104486;28;47539;-60
2022/07/17 02:41:00;;;;;;;;;2.00;2.00;;;;;25.93;32.50;101832.81;2104532;28;46955;-60
2022/07/17 02:42:00;;;;;;;;;2.00;2.00;;;;;25.91;32.96;101832.91;2104474;28;46536;-59
2022/07/17 02:43:01;;;;;;;;;4.50;4.50;;;;;25.91;33.08;101832.03;2104318;28;47850;-60
2022/07/17 02:44:01;;;;;;;;;3.00;3.00;;;;;25.90;32.58;101830.28;2095671;28;47140;-58
2022/07/17 02:45:02;;;;;;;;;4.00;4.00;;;;;25.90;33.09;101835.72;2087069;28;47508;-59
2022/07/17 02:46:02;;;;;;;;;4.40;2.60;;;;;25.88;32.46;101835.84;2087007;28;47242;-60
2022/07/17 02:47:03;;;;;;;;;2.75;2.50;;;;;25.88;32.87;101832.25;2095328;28;47829;-59
2022/07/17 02:48:03;;;;;;;;;3.25;2.50;;;;;25.87;33.17;101831.38;2104005;28;47690;-58
2022/07/17 02:49:04;;;;;;;;;2.75;2.75;;;;;25.87;32.99;101835.94;2104725;28;47642;-60
2022/07/17 02:50:07;;;;;;;;;4.00;4.00;;;;;25.86;33.04;101837.78;2104102;28;47628;-60
2022/07/17 02:51:08;;;;;;;;;3.80;3.80;;;;;25.86;32.73;101834.19;2104128;28;47763;-60
2022/07/17 02:52:08;;;;;;;;;3.00;2.00;;;;;25.85;33.21;101827.88;2104469;28;47267;-58
2022/07/17 02:53:09;;;;;;;;;4.50;4.50;;;;;25.85;32.38;101833.34;2104016;28;47509;-61
2022/07/17 02:54:09;;;;;;;;;1.00;1.00;;;;;25.83;32.87;101832.56;2104518;28;47321;-60
2022/07/17 02:55:10;;;;;;;;;3.75;3.75;;;;;25.82;32.89;101833.53;2104185;28;47394;-59
2022/07/17 02:56:10;;;;;;;;;3.00;3.00;;;;;25.81;32.90;101823.66;2104107;28;48104;-60
2022/07/17 02:57:12;;;;;;;;;2.75;2.75;;;;;25.80;33.14;101827.34;2104387;28;47731;-60
2022/07/17 02:58:13;;;;;;;;;3.00;2.20;;;;;25.78;33.20;101821.97;2103980;28;47988;-60
2022/07/17 02:59:13;;;;;;;;;3.00;3.00;;;;;25.78;33.10;101823.84;2104267;28;48216;-61
2022/07/17 03:00:16;;;;;;;;;3.00;3.00;;;;;25.76;33.40;101829.38;2104195;28;47694;-61
2022/07/17 03:01:16;;;;;;;;;2.40;2.40;;;;;25.76;32.95;101817.63;2109082;27;47721;-61
2022/07/17 03:02:17;;;;;;;;;2.50;2.50;;;;;25.75;33.41;101824.03;2098339;28;47466;-62
2022/07/17 03:03:19;;;;;;;;;3.00;3.00;;;;;25.74;33.41;101825.03;2087113;28;47965;-60
2022/07/17 03:04:20;;;;;;;;;2.40;2.40;;;;;25.72;32.86;101821.53;2104164;28;47830;-61
2022/07/17 03:05:20;;;;;;;;;4.50;4.50;;;;;25.71;33.02;101825.25;2104265;28;47239;-59
2022/07/17 03:06:21;;;;;;;;;4.75;4.75;;;;;25.70;33.27;101824.38;2104202;28;47551;-62
2022/07/17 03:07:21;;;;;;;;;4.75;3.00;;;;;25.68;32.88;101817.28;2104135;28;47099;-60
2022/07/17 03:08:21;;;;;;;;;2.00;2.00;;;;;25.67;33.09;101819.13;2103966;28;47717;-60
2022/07/17 03:09:22;;;;;;;;;3.00;3.00;;;;;25.65;33.03;101821.03;2104184;28;47331;-62
2022/07/17 03:10:22;;;;;;;;;2.00;2.00;;;;;25.64;32.78;101813.00;2086157;28;47692;-70
2022/07/17 03:11:23;;;;;;;;;2.00;2.00;;;;;25.64;33.64;101819.28;2086220;28;47301;-60
2022/07/17 03:12:23;;;;;;;;;3.00;3.00;;;;;25.63;33.52;101811.25;2099825;28;47617;-58
2022/07/17 03:13:23;;;;;;;;;2.00;2.00;;;;;25.62;33.10;101821.25;2104083;28;47242;-60
2022/07/17 03:14:24;;;;;;;;;4.25;4.25;;;;;25.62;33.17;101820.38;2104013;28;47347;-60
2022/07/17 03:15:24;;;;;;;;;4.00;4.00;;;;;25.63;33.06;101824.84;2104121;28;47217;-62
2022/07/17 03:16:25;;;;;;;;;3.75;3.75;;;;;25.61;32.94;101822.22;2104494;28;45565;-61
2022/07/17 03:17:25;;;;;;;;;4.00;4.00;;;;;25.60;33.55;101820.50;2088829;28;47607;-60
2022/07/17 03:18:26;;;;;;;;;3.50;3.50;;;;;25.59;33.23;101820.59;2091381;28;47686;-61
2022/07/17 03:19:26;;;;;;;;;1.25;1.25;;;;;25.58;33.13;101816.13;2105531;27;47414;-59
2022/07/17 03:20:27;;;;;;;;;3.00;3.00;;;;;25.58;33.59;101824.28;2098161;28;47016;-60
2022/07/17 03:21:27;;;;;;;;;0.50;0.50;;;;;25.58;33.43;101824.28;2098143;28;47782;-59
2022/07/17 03:22:28;;;;;;;;;3.00;3.00;;;;;25.57;33.20;101820.69;2098118;28;47764;-59
2022/07/17 03:23:28;;;;;;;;;3.25;3.25;;;;;25.57;33.62;101822.56;2097676;28;47490;-62
2022/07/17 03:24:28;;;;;;;;;2.00;2.00;;;;;25.55;33.47;101817.22;2107168;28;47433;-59
2022/07/17 03:25:29;;;;;;;;;2.75;2.75;;;;;25.56;33.39;101818.09;2106681;28;48132;-60
2022/07/17 03:26:30;;;;;;;;;3.00;3.00;;;;;25.54;33.27;101820.91;2107005;28;47259;-61
2022/07/17 03:27:31;;;;;;;;;3.75;3.75;;;;;25.53;33.82;101825.44;2096472;28;47574;-60
2022/07/17 03:28:31;;;;;;;;;3.00;2.50;;;;;25.53;33.14;101828.16;2092697;28;47140;-61
2022/07/17 03:29:31;;;;;;;;;1.00;1.00;;;;;25.52;33.71;101826.44;2106987;28;47802;-61
2022/07/17 03:30:32;;;;;;;;;2.50;2.50;;;;;25.53;33.35;101827.31;2106842;28;47897;-62
2022/07/17 03:31:32;;;;;;;;;3.00;3.00;;;;;25.51;33.01;101829.25;2106842;28;47639;-62
2022/07/17 03:32:33;;;;;;;;;2.25;2.25;;;;;25.51;33.44;101823.81;2098248;28;45846;-62
2022/07/17 03:33:33;;;;;;;;;3.25;3.00;;;;;25.50;33.50;101828.38;2097840;28;47599;-61
2022/07/17 03:34:34;;;;;;;;;2.75;2.75;;;;;25.48;33.61;101833.06;2106872;28;47327;-62
2022/07/17 03:35:35;;;;;;;;;4.00;4.00;;;;;25.48;33.38;101826.75;2106852;28;47499;-59
2022/07/17 03:36:35;;;;;;;;;2.60;2.60;;;;;25.46;33.37;101828.69;2107027;28;47458;-60
2022/07/17 03:37:37;;;;;;;;;2.00;2.00;;;;;25.45;33.14;101833.25;2107134;28;47302;-66
2022/07/17 03:38:37;;;;;;;;;3.20;3.20;;;;;25.45;33.26;101830.56;2096796;28;47443;-62
2022/07/17 03:39:39;;;;;;;;;3.00;3.00;;;;;25.44;33.63;101828.81;2097518;28;47596;-60
2022/07/17 03:40:39;;;;;;;;;3.80;3.20;;;;;25.43;33.38;101832.50;2106986;28;48207;-56
2022/07/17 03:41:40;;;;;;;;;7.75;4.25;;;;;25.43;33.80;101845.22;2106855;27;46944;-59
2022/07/17 03:42:40;;;;;;;;;4.00;3.00;;;;;25.42;33.66;101838.91;2097877;28;47257;-53
2022/07/17 03:43:40;;;;;;;;;2.75;2.75;;;;;25.41;33.25;101839.88;2097880;28;47261;-58
2022/07/17 03:44:41;;;;;;;;;2.50;2.50;;;;;25.41;33.66;101841.69;2106836;28;47433;-58
2022/07/17 03:45:42;;;;;;;;;4.00;4.00;;;;;25.40;33.62;101842.69;2107025;28;47367;-60
2022/07/17 03:46:42;;;;;;;;;3.80;3.80;;;;;25.39;33.94;101844.53;2106542;28;47427;-61
2022/07/17 03:47:43;;;;;;;;;2.50;2.50;;;;;25.38;33.74;101845.50;2106812;28;48283;-59
2022/07/17 03:48:43;;;;;;;;;2.00;2.00;;;;;25.38;33.87;101856.38;2106530;27;48105;-58
2022/07/17 03:49:43;;;;;;;;;3.00;2.00;;;;;25.38;33.84;101847.34;2106928;28;47465;-61
2022/07/17 03:50:44;;;;;;;;;2.75;2.75;;;;;25.37;33.22;101845.59;2106649;28;46551;-60
2022/07/17 03:51:44;;;;;;;;;2.00;2.00;;;;;25.37;34.06;101848.31;2106676;28;47642;-60
2022/07/17 03:52:45;;;;;;;;;2.00;2.00;;;;;25.35;34.05;101842.13;2106717;28;47970;-60
2022/07/17 03:53:45;;;;;;;;;2.25;2.25;;;;;25.35;33.51;101845.72;2106057;28;47295;-61
2022/07/17 03:54:45;;;;;;;;;3.00;3.00;;;;;25.35;33.49;101842.13;2105977;28;48003;-60
2022/07/17 03:55:46;;;;;;;;;2.75;2.75;;;;;25.34;33.96;101840.38;2106942;28;47949;-61
2022/07/17 03:56:46;;;;;;;;;4.50;4.50;;;;;25.34;33.94;101852.13;2085906;28;47272;-59
2022/07/17 03:57:47;;;;;;;;;3.50;3.50;;;;;25.35;33.58;101853.88;2077938;28;47580;-61
2022/07/17 03:58:47;;;;;;;;;3.00;3.00;;;;;25.34;34.07;101849.41;2088530;28;47983;-59
2022/07/17 03:59:47;;;;;;;;;3.75;2.75;;;;;25.35;33.57;101850.28;2094615;28;47346;-59
2022/07/17 04:00:48;;;;;;;;;4.25;4.25;;;;;25.35;33.44;101855.72;2106622;27;47342;-61
2022/07/17 04:01:48;;;;;;;;;3.00;3.00;;;;;25.34;33.76;101854.84;2106706;28;47799;-62
2022/07/17 04:02:49;;;;;;;;;2.00;2.00;;;;;25.34;33.79;101851.25;2106762;28;47604;-60
2022/07/17 04:03:49;;;;;;;;;3.50;3.50;;;;;25.34;33.98;101852.13;2105570;27;47607;-60
2022/07/17 04:04:50;;;;;;;;;4.25;4.25;;;;;25.34;34.15;101853.97;2106679;28;47040;-61
2022/07/17 04:05:51;;;;;;;;;4.00;4.00;;;;;25.32;34.23;101853.19;2106623;28;47423;-59
2022/07/17 04:06:51;;;;;;;;;3.00;3.00;;;;;25.31;33.70;101849.63;2106734;28;47898;-60
2022/07/17 04:07:52;;;;;;;;;2.75;2.50;;;;;25.31;33.78;101856.91;2106955;28;47528;-60
2022/07/17 04:08:52;;;;;;;;;4.00;4.00;;;;;25.30;34.00;101850.59;2106792;28;48021;-58
2022/07/17 04:09:58;;;;;;;;;1.00;0.50;;;;;25.30;33.80;101847.00;2106852;28;47550;-58
2022/07/17 04:10:58;;;;;;;;;3.40;3.40;;;;;25.30;34.01;101850.59;2106731;28;48476;-58
2022/07/17 04:11:59;;;;;;;;;3.00;2.75;;;;;25.31;33.87;101852.34;2106546;28;48279;-61
2022/07/17 04:12:59;;;;;;;;;3.75;3.75;;;;;25.30;33.50;101847.00;2106509;28;47661;-59
2022/07/17 04:14:00;;;;;;;;;2.75;2.75;;;;;25.29;34.07;101834.38;2106330;28;47965;-60
2022/07/17 04:15:01;;;;;;;;;3.75;3.75;;;;;25.29;33.89;101837.09;2097261;28;46772;-61
2022/07/17 04:16:01;;;;;;;;;1.80;1.60;;;;;25.28;34.24;101838.91;2097821;28;47577;-57
2022/07/17 04:17:02;;;;;;;;;3.00;3.00;;;;;25.28;34.06;101835.34;2097948;28;47117;-60
2022/07/17 04:18:02;;;;;;;;;4.50;3.50;;;;;25.27;33.74;101836.31;2097645;28;47640;-58
2022/07/17 04:19:03;;;;;;;;;4.00;4.00;;;;;25.25;33.83;101836.41;2097126;28;47172;-60
2022/07/17 04:20:04;;;;;;;;;3.25;3.25;;;;;25.25;34.11;101839.13;2097669;28;47440;-60
2022/07/17 04:21:09;;;;;;;;;4.20;4.20;;;;;25.24;33.81;101837.38;2106691;28;47444;-59
2022/07/17 04:22:10;;;;;;;;;4.80;2.80;;;;;25.23;34.17;101841.09;2106670;28;47498;-60
2022/07/17 04:23:11;;;;;;;;;3.40;3.40;;;;;25.24;33.76;101845.53;2106732;28;47343;-59
2022/07/17 04:24:11;;;;;;;;;2.25;2.25;;;;;25.22;33.97;101842.94;2097766;28;45745;-60
2022/07/17 04:25:11;;;;;;;;;4.00;3.00;;;;;25.21;33.78;101838.47;2097488;28;47607;-60
2022/07/17 04:26:12;;;;;;;;;3.50;3.00;;;;;25.21;33.89;101848.47;2106719;28;47813;-60
2022/07/17 04:27:13;;;;;;;;;5.50;4.50;;;;;25.20;33.97;101846.72;2097220;28;45867;-61
2022/07/17 04:28:14;;;;;;;;;3.40;3.40;;;;;25.18;33.92;101852.25;2096805;28;47385;-59
2022/07/17 04:29:14;;;;;;;;;7.40;6.40;;;;;25.17;33.96;101855.94;2106757;28;47441;-59
2022/07/17 04:30:15;;;;;;;;;5.75;5.50;;;;;25.15;34.08;101857.00;2106444;27;47367;-60
2022/07/17 04:31:15;;;;;;;;;9.00;8.00;;;;;25.16;34.43;101862.34;2105057;28;47588;-59
2022/07/17 04:32:15;;;;;;;;;3.00;1.75;;;;;25.15;34.20;101868.72;2104801;28;47802;-59
2022/07/17 04:33:16;;;;;;;;;10.75;9.25;;;;;25.16;34.07;101866.91;2104931;28;48091;-60
2022/07/17 04:34:17;;;;;;;;;8.60;7.20;;;;;25.16;34.34;101877.78;2104936;28;47552;-60
2022/07/17 04:35:18;;;;;;;;;8.00;8.00;;;;;25.14;34.22;101875.13;2094346;28;47164;-60
2022/07/17 04:36:18;;;;;;;;;12.25;12.25;;;;;25.12;34.34;101877.09;2096021;28;47889;-60
2022/07/17 04:37:18;;;;;;;;;14.50;14.50;;;;;25.10;34.37;101873.59;2105139;28;47911;-60
2022/07/17 04:38:19;;;;;;;;;15.50;14.25;;;;;25.09;34.51;101880.00;2105023;28;47444;-59
2022/07/17 04:39:20;;;;;;;;;19.00;18.00;;;;;25.09;34.26;101881.84;2104995;28;48164;-58
2022/07/17 04:40:21;;;;;;;;;20.00;20.00;;;;;25.08;34.43;101882.81;2105056;28;47939;-59
2022/07/17 04:41:21;;;;;;;;;15.40;14.00;;;;;25.06;34.25;101877.50;2096264;28;47073;-59
2022/07/17 04:42:22;;;;;;;;;25.25;24.50;;;;;25.05;33.82;101875.75;2095811;28;47999;-60